createdAt,value
2023-04-17T00:02:09.185Z,36.37
2023-04-17T00:04:37.243Z,32.17
2023-04-17T00:07:05.871Z,37.83
2023-04-17T00:09:33.266Z,36.93
2023-04-17T00:12:01.172Z,35.47
2023-04-17T00:14:28.519Z,38.20
2023-04-17T00:16:55.959Z,34.83
2023-04-17T00:19:23.334Z,34.60
2023-04-17T00:21:50.700Z,36.87
2023-04-17T00:24:18.091Z,37.67
2023-04-17T00:26:45.480Z,36.90
2023-04-17T00:29:12.919Z,35.60
2023-04-17T00:31:40.504Z,31.23
2023-04-17T00:34:07.848Z,37.10
2023-04-17T00:36:35.239Z,33.50
2023-04-17T00:39:02.650Z,39.30
2023-04-17T00:41:30.106Z,37.17
2023-04-17T00:43:57.509Z,37.07
2023-04-17T00:46:25.382Z,40.20
2023-04-17T00:48:53.120Z,38.70
2023-04-17T00:51:20.898Z,37.47
2023-04-17T00:53:48.297Z,33.67
2023-04-17T00:56:15.667Z,37.67
2023-04-17T00:58:43.077Z,43.33
2023-04-17T01:01:10.554Z,40.17
2023-04-17T01:03:38.177Z,40.33
2023-04-17T01:06:06.215Z,45.10
2023-04-17T01:08:35.203Z,37.87
2023-04-17T01:11:02.503Z,39.57
2023-04-17T01:13:29.834Z,36.90
2023-04-17T01:15:57.217Z,47.40
2023-04-17T01:18:24.598Z,44.30
2023-04-17T01:20:51.968Z,39.43
2023-04-17T01:23:19.288Z,39.87
2023-04-17T01:25:46.769Z,43.10
2023-04-17T01:28:14.144Z,42.50
2023-04-17T01:30:41.571Z,41.20
2023-04-17T01:33:08.918Z,40.77
2023-04-17T01:35:36.310Z,40.60
2023-04-17T01:38:03.696Z,38.80
2023-04-17T01:40:30.999Z,39.17
2023-04-17T01:42:58.333Z,38.30
2023-04-17T01:45:25.735Z,33.87
2023-04-17T01:47:53.607Z,43.03
2023-04-17T01:50:21.008Z,46.93
2023-04-17T01:52:48.392Z,38.80
2023-04-17T01:55:15.803Z,39.57
2023-04-17T01:57:43.484Z,33.33
2023-04-17T02:00:11.078Z,42.43
2023-04-17T02:02:38.610Z,36.57
2023-04-17T02:05:06.350Z,31.37
2023-04-17T02:07:33.680Z,33.10
2023-04-17T02:10:01.066Z,38.70
2023-04-17T02:12:28.444Z,41.80
2023-04-17T02:14:57.472Z,45.10
2023-04-17T02:17:24.893Z,48.47
2023-04-17T02:19:52.256Z,42.33
2023-04-17T02:22:19.638Z,42.00
2023-04-17T02:24:47.052Z,41.70
2023-04-17T02:27:14.423Z,45.73
2023-04-17T02:29:41.809Z,38.87
2023-04-17T02:32:09.210Z,45.03
2023-04-17T02:34:36.656Z,42.13
2023-04-17T02:37:04.053Z,48.13
2023-04-17T02:39:31.694Z,47.93
2023-04-17T02:41:59.111Z,51.80
2023-04-17T02:44:26.487Z,52.80
2023-04-17T02:46:53.929Z,49.20
2023-04-17T02:49:21.345Z,42.13
2023-04-17T02:51:48.747Z,45.53
2023-04-17T02:54:16.110Z,44.40
2023-04-17T02:56:43.513Z,45.00
2023-04-17T02:59:11.178Z,50.47
2023-04-17T03:01:38.707Z,46.30
2023-04-17T03:04:06.200Z,48.80
2023-04-17T03:06:33.717Z,47.80
2023-04-17T03:09:01.359Z,38.13
2023-04-17T03:11:28.746Z,43.27
2023-04-17T03:13:56.125Z,46.10
2023-04-17T03:16:23.567Z,40.43
2023-04-17T03:18:51.018Z,49.57
2023-04-17T03:21:18.399Z,52.10
2023-04-17T03:23:45.866Z,61.80
2023-04-17T03:26:13.260Z,40.70
2023-04-17T03:28:40.644Z,58.87
2023-04-17T03:31:08.017Z,48.13
2023-04-17T03:33:37.042Z,46.07
2023-04-17T03:36:04.450Z,45.60
2023-04-17T03:38:31.808Z,51.10
2023-04-17T03:40:59.206Z,49.20
2023-04-17T03:43:26.598Z,43.63
2023-04-17T03:45:54.021Z,51.77
2023-04-17T03:48:21.444Z,50.17
2023-04-17T03:50:50.081Z,45.90
2023-04-17T03:53:17.472Z,57.23
2023-04-17T03:55:44.847Z,51.10
2023-04-17T03:58:12.232Z,47.77
2023-04-17T04:00:39.635Z,50.80
2023-04-17T04:03:07.326Z,46.40
2023-04-17T04:05:34.916Z,52.60
2023-04-17T04:08:02.305Z,44.83
2023-04-17T04:10:29.673Z,45.53
2023-04-17T04:12:56.983Z,45.47
2023-04-17T04:15:24.369Z,61.87
2023-04-17T04:17:51.867Z,44.67
2023-04-17T04:20:19.249Z,46.33
2023-04-17T04:22:48.340Z,43.13
2023-04-17T04:25:15.974Z,49.37
2023-04-17T04:27:45.032Z,51.07
2023-04-17T04:30:12.798Z,49.43
2023-04-17T04:32:40.726Z,44.30
2023-04-17T04:35:08.416Z,43.17
2023-04-17T04:37:35.812Z,44.87
2023-04-17T04:40:04.849Z,51.57
2023-04-17T04:42:32.798Z,45.17
2023-04-17T04:45:00.265Z,49.77
2023-04-17T04:47:27.669Z,63.60
2023-04-17T04:49:55.396Z,45.60
2023-04-17T04:52:22.774Z,52.10
2023-04-17T04:54:50.175Z,55.80
2023-04-17T04:57:17.564Z,49.23
2023-04-17T04:59:44.940Z,52.77
2023-04-17T05:02:12.504Z,45.47
2023-04-17T05:04:40.132Z,52.43
2023-04-17T05:07:07.833Z,49.10
2023-04-17T05:09:35.518Z,47.57
2023-04-17T05:12:03.000Z,45.87
2023-04-17T05:14:30.357Z,48.23
2023-04-17T05:16:57.702Z,54.53
2023-04-17T05:19:25.763Z,46.17
2023-04-17T05:21:53.113Z,43.67
2023-04-17T05:24:20.734Z,43.47
2023-04-17T05:26:48.093Z,47.07
2023-04-17T05:29:16.468Z,41.17
2023-04-17T05:31:43.890Z,40.47
2023-04-17T05:34:11.313Z,42.87
2023-04-17T05:36:38.799Z,45.53
2023-04-17T05:39:06.184Z,42.27
2023-04-17T05:41:33.586Z,46.23
2023-04-17T05:44:00.973Z,42.95
2023-04-17T05:46:28.654Z,41.30
2023-04-17T05:48:56.691Z,38.70
2023-04-17T05:51:24.019Z,42.77
2023-04-17T05:53:51.426Z,41.10
2023-04-17T05:56:18.848Z,45.70
2023-04-17T05:58:46.254Z,38.37
2023-04-17T06:01:15.293Z,45.63
2023-04-17T06:03:42.854Z,43.60
2023-04-17T06:06:10.544Z,42.83
2023-04-17T06:08:37.942Z,38.90
2023-04-17T06:11:05.495Z,35.10
2023-04-17T06:13:33.362Z,39.80
2023-04-17T06:16:00.956Z,32.83
2023-04-17T06:18:28.348Z,39.23
2023-04-17T06:20:55.869Z,37.93
2023-04-17T06:23:23.272Z,33.33
2023-04-17T06:25:50.661Z,36.73
2023-04-17T06:28:18.349Z,37.63
2023-04-17T06:30:45.923Z,32.10
2023-04-17T06:33:13.309Z,33.63
2023-04-17T06:35:40.761Z,35.33
2023-04-17T06:38:08.915Z,35.00
2023-04-17T06:40:36.578Z,32.37
2023-04-17T06:43:03.980Z,34.63
2023-04-17T06:45:33.289Z,32.90
2023-04-17T06:48:00.934Z,37.17
2023-04-17T06:50:28.919Z,38.97
2023-04-17T06:52:56.328Z,36.40
2023-04-17T06:55:23.707Z,36.93
2023-04-17T06:57:51.130Z,34.63
2023-04-17T07:00:18.672Z,30.13
2023-04-17T07:02:46.150Z,28.30
2023-04-17T07:05:13.661Z,28.87
2023-04-17T07:07:41.466Z,27.53
2023-04-17T07:10:08.888Z,29.30
2023-04-17T07:12:36.562Z,26.70
2023-04-17T07:15:04.062Z,27.60
2023-04-17T07:17:31.471Z,29.37
2023-04-17T07:19:58.818Z,31.83
2023-04-17T07:22:27.412Z,28.10
2023-04-17T07:24:55.109Z,26.87
2023-04-17T07:27:22.530Z,27.50
2023-04-17T07:29:51.555Z,24.40
2023-04-17T07:32:19.208Z,23.27
2023-04-17T07:34:47.314Z,25.07
2023-04-17T07:37:17.723Z,25.17
2023-04-17T07:39:45.204Z,26.83
2023-04-17T07:42:12.563Z,30.37
2023-04-17T07:44:39.980Z,30.37
2023-04-17T07:47:07.416Z,30.17
2023-04-17T07:49:35.149Z,28.03
2023-04-17T07:52:02.524Z,26.13
2023-04-17T07:54:31.762Z,30.00
2023-04-17T07:57:01.061Z,26.83
2023-04-17T07:59:28.466Z,26.33
2023-04-17T08:01:55.941Z,28.03
2023-04-17T08:04:24.303Z,29.87
2023-04-17T08:06:52.075Z,31.97
2023-04-17T08:09:21.513Z,35.90
2023-04-17T08:11:57.180Z,30.03
2023-04-17T08:14:19.614Z,30.43
2023-04-17T08:16:47.913Z,31.70
2023-04-17T08:19:15.352Z,29.63
2023-04-17T08:21:42.756Z,30.37
2023-04-17T08:24:10.237Z,29.13
2023-04-17T08:26:37.635Z,30.80
2023-04-17T08:29:04.989Z,33.20
2023-04-17T08:31:32.401Z,28.73
2023-04-17T08:34:10.946Z,32.17
2023-04-17T08:36:30.980Z,36.80
2023-04-17T08:38:58.361Z,31.33
2023-04-17T08:41:27.773Z,32.40
2023-04-17T08:43:56.704Z,34.43
2023-04-17T08:46:24.325Z,33.57
2023-04-17T08:48:52.265Z,34.90
2023-04-17T08:51:19.745Z,34.80
2023-04-17T08:53:47.155Z,39.80
2023-04-17T08:56:14.528Z,36.27
2023-04-17T08:58:41.940Z,33.63
2023-04-17T09:01:12.015Z,33.83
2023-04-17T09:03:43.002Z,32.53
2023-04-17T09:06:13.654Z,31.47
2023-04-17T09:08:42.612Z,34.90
2023-04-17T09:11:11.515Z,33.50
2023-04-17T09:13:40.020Z,33.07
2023-04-17T09:16:08.628Z,28.40
2023-04-17T09:18:36.366Z,29.60
2023-04-17T09:21:04.304Z,28.17
2023-04-17T09:23:32.667Z,28.87
2023-04-17T09:26:07.463Z,31.10
2023-04-17T09:28:39.591Z,29.40
2023-04-17T09:31:09.131Z,31.03
2023-04-17T09:33:38.785Z,35.23
2023-04-17T09:36:21.952Z,26.20
2023-04-17T09:38:49.177Z,28.43
2023-04-17T09:41:27.172Z,27.57
2023-04-17T09:43:55.309Z,28.67
2023-04-17T09:46:37.148Z,28.97
2023-04-17T09:49:12.163Z,26.13
2023-04-17T09:51:40.391Z,28.33
2023-04-17T09:54:09.405Z,27.90
2023-04-17T09:56:37.795Z,25.53
2023-04-17T09:59:06.034Z,24.83
2023-04-17T10:01:34.224Z,29.93
2023-04-17T10:04:02.378Z,24.77
2023-04-17T10:06:31.317Z,24.30
2023-04-17T10:08:58.944Z,25.97
2023-04-17T10:11:28.090Z,23.30
2023-04-17T10:14:13.594Z,25.10
2023-04-17T10:16:44.928Z,20.07
2023-04-17T10:19:30.121Z,21.83
2023-04-17T10:22:20.041Z,23.57
2023-04-17T10:24:48.912Z,17.30
2023-04-17T10:27:31.449Z,22.20
2023-04-17T10:29:59.642Z,20.57
2023-04-17T10:32:30.476Z,22.70
2023-04-17T10:34:59.370Z,19.90
2023-04-17T10:37:45.087Z,21.47
2023-04-17T10:40:14.120Z,22.50
2023-04-17T10:42:41.764Z,17.87
2023-04-17T10:45:10.770Z,20.73
2023-04-17T10:47:38.711Z,20.13
2023-04-17T10:50:08.337Z,19.03
2023-04-17T10:52:44.528Z,19.83
2023-04-17T10:55:14.323Z,25.03
2023-04-17T10:57:58.114Z,21.20
2023-04-17T11:00:28.016Z,19.90
2023-04-17T11:02:55.558Z,19.93
2023-04-17T11:05:24.091Z,21.30
2023-04-17T11:07:51.471Z,20.47
2023-04-17T11:10:22.863Z,18.13
2023-04-17T11:12:52.798Z,18.70
2023-04-17T11:15:21.708Z,17.13
2023-04-17T11:17:49.241Z,23.00
2023-04-17T11:20:18.929Z,16.53
2023-04-17T11:22:46.326Z,17.30
2023-04-17T11:25:27.588Z,19.80
2023-04-17T11:27:58.648Z,15.70
2023-04-17T11:30:27.783Z,17.40
2023-04-17T11:32:56.874Z,14.03
2023-04-17T11:35:25.837Z,14.77
2023-04-17T11:38:11.364Z,14.90
2023-04-17T11:40:45.093Z,14.60
2023-04-17T11:43:13.162Z,14.53
2023-04-17T11:45:41.968Z,13.93
2023-04-17T11:48:10.665Z,13.40
2023-04-17T11:50:38.584Z,17.20
2023-04-17T11:53:06.352Z,13.40
2023-04-17T11:55:34.888Z,12.50
2023-04-17T11:58:04.042Z,14.77
2023-04-17T12:00:31.758Z,12.10
2023-04-17T12:03:00.692Z,13.60
2023-04-17T12:05:29.051Z,11.57
2023-04-17T12:08:04.473Z,11.47
2023-04-17T12:10:44.936Z,31.63
2023-04-17T12:13:12.336Z,11.67
2023-04-17T12:15:39.799Z,10.10
2023-04-17T12:18:08.811Z,10.30
2023-04-17T12:20:37.129Z,10.60
2023-04-17T12:23:05.626Z,10.57
2023-04-17T12:25:33.671Z,12.30
2023-04-17T12:28:03.263Z,11.60
2023-04-17T12:30:30.800Z,11.27
2023-04-17T12:32:58.300Z,13.10
2023-04-17T12:35:26.239Z,10.73
2023-04-17T12:37:53.638Z,16.63
2023-04-17T12:40:24.475Z,11.83
2023-04-17T12:42:51.391Z,11.83
2023-04-17T12:45:19.317Z,13.33
2023-04-17T12:47:46.748Z,12.37
2023-04-17T12:50:14.130Z,11.30
2023-04-17T12:52:41.776Z,12.50
2023-04-17T12:55:09.443Z,11.33
2023-04-17T12:57:37.218Z,13.20
2023-04-17T13:00:09.173Z,12.93
2023-04-17T13:02:37.085Z,14.60
2023-04-17T13:05:06.691Z,11.40
2023-04-17T13:07:34.092Z,11.63
2023-04-17T13:10:01.463Z,10.57
2023-04-17T13:12:28.872Z,10.67
2023-04-17T13:14:57.455Z,10.63
2023-04-17T13:17:25.325Z,10.60
2023-04-17T13:19:52.760Z,13.63
2023-04-17T13:22:20.456Z,11.17
2023-04-17T13:24:47.980Z,11.43
2023-04-17T13:27:15.384Z,11.27
2023-04-17T13:29:42.758Z,12.23
2023-04-17T13:32:10.227Z,9.53
2023-04-17T13:34:37.628Z,13.20
2023-04-17T13:37:05.031Z,12.10
2023-04-17T13:39:32.410Z,12.03
2023-04-17T13:41:59.876Z,12.23
2023-04-17T13:44:28.139Z,13.57
2023-04-17T13:46:55.666Z,11.10
2023-04-17T13:49:23.070Z,10.93
2023-04-17T13:51:50.730Z,10.90
2023-04-17T13:54:18.686Z,12.37
2023-04-17T13:56:46.061Z,12.70
2023-04-17T13:59:13.636Z,13.50
2023-04-17T14:01:43.433Z,14.63
2023-04-17T14:04:11.305Z,11.43
2023-04-17T14:06:38.951Z,10.73
2023-04-17T14:09:07.293Z,12.13
2023-04-17T14:11:34.700Z,12.00
2023-04-17T14:14:02.054Z,11.20
2023-04-17T14:16:29.539Z,14.87
2023-04-17T14:19:01.357Z,12.30
2023-04-17T14:21:26.030Z,13.70
2023-04-17T14:23:53.598Z,17.13
2023-04-17T14:26:21.545Z,11.47
2023-04-17T14:28:48.929Z,12.60
2023-04-17T14:31:16.406Z,13.10
2023-04-17T14:33:43.812Z,12.63
2023-04-17T14:36:11.221Z,13.20
2023-04-17T14:38:38.597Z,17.13
2023-04-17T14:41:06.000Z,12.20
2023-04-17T14:43:33.364Z,15.60
2023-04-17T14:46:01.194Z,13.90
2023-04-17T14:48:29.253Z,12.50
2023-04-17T14:50:56.639Z,12.00
2023-04-17T14:53:24.042Z,10.70
2023-04-17T14:55:52.653Z,14.70
2023-04-17T14:58:20.050Z,11.87
2023-04-17T15:00:47.482Z,12.47
2023-04-17T15:03:14.953Z,11.60
2023-04-17T15:05:42.330Z,13.63
2023-04-17T15:08:09.737Z,12.83
2023-04-17T15:10:50.210Z,13.83
2023-04-17T15:13:06.705Z,12.30
2023-04-17T15:15:34.106Z,11.37
2023-04-17T15:18:01.586Z,13.20
2023-04-17T15:20:28.900Z,11.17
2023-04-17T15:22:56.289Z,17.40
2023-04-17T15:25:24.809Z,15.00
2023-04-17T15:27:52.287Z,12.90
2023-04-17T15:30:19.733Z,12.77
2023-04-17T15:32:47.132Z,16.90
2023-04-17T15:35:14.498Z,12.87
2023-04-17T15:37:41.903Z,12.57
2023-04-17T15:40:09.503Z,12.57
2023-04-17T15:42:36.930Z,11.70
2023-04-17T15:45:04.491Z,13.40
2023-04-17T15:47:32.028Z,12.83
2023-04-17T15:49:59.515Z,11.50
2023-04-17T15:52:26.915Z,11.60
2023-04-17T15:54:54.325Z,13.00
2023-04-17T15:57:21.858Z,14.70
2023-04-17T15:59:49.252Z,13.10
2023-04-17T16:02:16.880Z,11.30
2023-04-17T16:04:44.465Z,10.67
2023-04-17T16:07:12.054Z,13.10
2023-04-17T16:09:39.654Z,11.73
2023-04-17T16:12:08.679Z,15.73
2023-04-17T16:14:36.756Z,13.13
2023-04-17T16:17:04.134Z,11.60
2023-04-17T16:19:32.373Z,11.63
2023-04-17T16:22:00.053Z,11.33
2023-04-17T16:24:27.715Z,12.57
2023-04-17T16:26:58.642Z,13.87
2023-04-17T16:29:26.282Z,14.10
2023-04-17T16:31:54.463Z,12.67
2023-04-17T16:34:22.008Z,13.73
2023-04-17T16:36:49.600Z,13.20
2023-04-17T16:39:17.095Z,15.00
2023-04-17T16:41:44.866Z,13.57
2023-04-17T16:44:12.788Z,11.50
2023-04-17T16:47:03.060Z,11.70
2023-04-17T16:49:11.278Z,18.20
2023-04-17T16:51:39.097Z,15.07
2023-04-17T16:54:06.765Z,15.67
2023-04-17T16:56:34.129Z,12.53
2023-04-17T16:59:01.576Z,13.23
2023-04-17T17:01:29.026Z,13.63
2023-04-17T17:03:56.453Z,17.47
2023-04-17T17:06:24.588Z,11.80
2023-04-17T17:11:19.664Z,18.37
2023-04-17T17:13:50.101Z,15.00
2023-04-17T17:16:18.002Z,14.30
2023-04-17T17:18:45.718Z,12.57
2023-04-17T17:21:13.200Z,14.97
2023-04-17T17:23:40.963Z,16.00
2023-04-17T17:26:08.550Z,21.50
2023-04-17T17:28:36.030Z,14.87
2023-04-17T17:31:04.878Z,13.00
2023-04-17T17:33:32.445Z,14.97
2023-04-17T17:36:00.264Z,14.17
2023-04-17T17:38:32.232Z,13.30
2023-04-17T17:40:59.643Z,14.13
2023-04-17T17:43:29.736Z,13.67
2023-04-17T17:45:57.165Z,14.80
2023-04-17T17:48:24.518Z,15.63
2023-04-17T17:50:54.915Z,15.10
2023-04-17T17:53:26.375Z,14.27
2023-04-17T17:55:52.315Z,13.53
2023-04-17T17:58:20.985Z,12.90
2023-04-17T18:00:49.112Z,13.00
2023-04-17T18:03:16.882Z,12.50
2023-04-17T18:05:44.802Z,12.90
2023-04-17T18:08:12.215Z,13.20
2023-04-17T18:10:39.677Z,12.03
2023-04-17T18:13:07.092Z,15.80
2023-04-17T18:15:34.731Z,16.03
2023-04-17T18:18:02.181Z,19.73
2023-04-17T18:20:29.618Z,13.00
2023-04-17T18:22:57.460Z,12.83
2023-04-17T18:25:25.648Z,14.30
2023-04-17T18:27:53.034Z,14.67
2023-04-17T18:30:20.591Z,22.10
2023-04-17T18:32:48.054Z,14.87
2023-04-17T18:35:15.379Z,15.03
2023-04-17T18:37:44.623Z,13.97
2023-04-17T18:40:12.780Z,12.93
2023-04-17T18:42:40.170Z,17.83
2023-04-17T18:45:07.739Z,15.13
2023-04-17T18:47:35.254Z,15.27
2023-04-17T18:50:03.808Z,15.17
2023-04-17T18:52:31.194Z,14.03
2023-04-17T18:54:58.587Z,13.07
2023-04-17T18:57:26.347Z,16.93
2023-04-17T18:59:53.872Z,13.37
2023-04-17T19:02:21.284Z,17.40
2023-04-17T19:04:48.672Z,15.40
2023-04-17T19:07:16.043Z,20.27
2023-04-17T19:09:44.610Z,16.00
2023-04-17T19:12:13.252Z,15.37
2023-04-17T19:14:40.812Z,16.93
2023-04-17T19:17:08.181Z,18.53
2023-04-17T19:19:35.562Z,14.97
2023-04-17T19:22:02.943Z,17.90
2023-04-17T19:24:30.417Z,20.70
2023-04-17T19:26:58.367Z,18.40
2023-04-17T19:29:25.824Z,21.70
2023-04-17T19:31:53.285Z,14.83
2023-04-17T19:34:20.778Z,16.50
2023-04-17T19:36:48.161Z,14.50
2023-04-17T19:39:15.855Z,22.13
2023-04-17T19:41:44.939Z,18.40
2023-04-17T19:44:14.119Z,16.27
2023-04-17T19:46:41.514Z,24.03
2023-04-17T19:49:08.898Z,19.27
2023-04-17T19:51:37.650Z,20.60
2023-04-17T19:54:05.320Z,21.30
2023-04-17T19:56:32.705Z,19.07
2023-04-17T19:59:03.420Z,16.03
2023-04-17T20:01:31.475Z,17.60
2023-04-17T20:04:00.612Z,19.20
2023-04-17T20:06:28.097Z,17.17
2023-04-17T20:08:57.131Z,19.57
2023-04-17T20:11:25.155Z,16.03
2023-04-17T20:13:52.726Z,19.90
2023-04-17T20:16:20.276Z,17.73
2023-04-17T20:18:48.854Z,18.00
2023-04-17T20:21:16.312Z,23.10
2023-04-17T20:23:44.079Z,17.53
2023-04-17T20:26:11.735Z,20.93
2023-04-17T20:28:39.141Z,20.10
2023-04-17T20:31:06.543Z,17.87
2023-04-17T20:33:33.973Z,17.17
2023-04-17T20:36:02.962Z,20.37
2023-04-17T20:38:30.348Z,18.30
2023-04-17T20:40:57.732Z,17.63
2023-04-17T20:43:25.205Z,23.00
2023-04-17T20:45:52.626Z,18.87
2023-04-17T20:48:20.110Z,24.00
2023-04-17T20:50:47.465Z,17.73
2023-04-17T20:53:14.862Z,19.87
2023-04-17T20:55:42.311Z,22.40
2023-04-17T20:58:10.084Z,21.33
2023-04-17T21:00:44.419Z,18.50
2023-04-17T21:03:06.838Z,20.60
2023-04-17T21:05:34.582Z,25.10
2023-04-17T21:08:02.461Z,17.60
2023-04-17T21:10:29.843Z,19.33
2023-04-17T21:12:57.245Z,19.50
2023-04-17T21:15:24.624Z,19.97
2023-04-17T21:17:52.080Z,21.40
2023-04-17T21:20:19.428Z,18.50
2023-04-17T21:22:46.828Z,19.17
2023-04-17T21:25:14.245Z,19.23
2023-04-17T21:27:43.288Z,19.23
2023-04-17T21:30:10.804Z,19.50
2023-04-17T21:32:39.241Z,22.17
2023-04-17T21:35:06.838Z,18.30
2023-04-17T21:37:34.227Z,20.37
2023-04-17T21:40:01.702Z,20.53
2023-04-17T21:42:29.080Z,17.67
2023-04-17T21:44:56.469Z,19.10
2023-04-17T21:47:23.944Z,25.47
2023-04-17T21:49:51.319Z,19.60
2023-04-17T21:52:18.714Z,20.70
2023-04-17T21:54:46.124Z,18.67
2023-04-17T21:57:13.515Z,19.97
2023-04-17T21:59:40.922Z,19.27
2023-04-17T22:02:08.363Z,21.27
2023-04-17T22:04:36.334Z,18.47
2023-04-17T22:07:03.756Z,17.83
2023-04-17T22:09:31.156Z,19.60
2023-04-17T22:11:58.545Z,18.53
2023-04-17T22:14:25.942Z,19.40
2023-04-17T22:16:53.375Z,19.40
2023-04-17T22:19:20.864Z,20.00
2023-04-17T22:21:48.240Z,19.90
2023-04-17T22:24:15.655Z,20.70
2023-04-17T22:26:43.164Z,19.50
2023-04-17T22:29:10.578Z,18.23
2023-04-17T22:31:37.958Z,24.50
2023-04-17T22:34:05.352Z,18.90
2023-04-17T22:36:32.734Z,19.13
2023-04-17T22:39:00.136Z,18.80
2023-04-17T22:41:27.515Z,20.23
2023-04-17T22:43:55.083Z,20.50
2023-04-17T22:46:22.604Z,26.07
2023-04-17T22:48:49.972Z,18.30
2023-04-17T22:51:17.637Z,19.63
2023-04-17T22:53:45.042Z,18.87
2023-04-17T22:56:13.373Z,23.60
2023-04-17T22:58:40.796Z,21.03
2023-04-17T23:01:08.225Z,21.50
2023-04-17T23:03:35.744Z,22.10
2023-04-17T23:06:03.263Z,19.97
2023-04-17T23:08:31.115Z,21.77
2023-04-17T23:11:00.430Z,21.37
2023-04-17T23:13:28.121Z,18.60
2023-04-17T23:15:55.771Z,22.70
2023-04-17T23:18:23.219Z,19.50
2023-04-17T23:20:50.601Z,19.13
2023-04-17T23:23:20.915Z,21.67
2023-04-17T23:25:48.326Z,21.00
2023-04-17T23:28:15.718Z,20.30
2023-04-17T23:30:43.102Z,20.17
2023-04-17T23:33:10.664Z,20.40
2023-04-17T23:35:38.139Z,21.40
2023-04-17T23:38:05.538Z,19.10
2023-04-17T23:40:34.500Z,21.27
2023-04-17T23:43:01.935Z,21.27
2023-04-17T23:45:29.411Z,25.20
2023-04-17T23:47:56.910Z,19.13
2023-04-17T23:50:24.329Z,19.70
2023-04-17T23:52:53.496Z,20.10
2023-04-17T23:55:21.056Z,19.80
2023-04-17T23:57:48.454Z,20.33
